Aurora, Colorado
Current Conditions -  °F | °C
As of 10:58 AM on Sunday 21 Dec 2014 (Local Time) from KBKF Reporting Station
Broken Clouds Broken Clouds  
Wind Chill: 43°   Ceiling: 22000
Heat Index: 47°   Visibility: 10mi
Dew Point: 19°   Wind: 7mph
Humidity: 33%   Direction: 180°S
Pressure: 29.64"   Gusts: NA
Location:  39.69°N, 104.86°W
Report Text: KBKF 211758Z 18006KT 10SM FEW060 SCT140 BKN220 08/M07 A2964 RMK AO2A SLP019 T00821074 10088 21013 55018
Loading
Personal Weather Stations






























Interactive Weather Map New forecast layout! Learn more

10-Day Weather Forecast

Advertisements
Track Severe Weather on mobile